createdAt,value
2023-05-03T00:01:14.101Z,5.55
2023-05-03T00:03:40.413Z,5.90
2023-05-03T00:06:14.179Z,6.10
2023-05-03T00:08:41.325Z,6.43
2023-05-03T00:11:08.487Z,6.10
2023-05-03T00:13:35.154Z,6.03
2023-05-03T00:16:01.902Z,5.80
2023-05-03T00:18:29.198Z,5.90
2023-05-03T00:20:55.605Z,6.32
2023-05-03T00:23:21.944Z,6.25
2023-05-03T00:25:53.174Z,5.65
2023-05-03T00:30:45.942Z,7.10
2023-05-03T00:33:12.429Z,8.73
2023-05-03T00:35:38.814Z,8.57
2023-05-03T00:38:05.129Z,9.23
2023-05-03T00:40:31.782Z,9.60
2023-05-03T00:42:58.120Z,9.77
2023-05-03T00:45:24.542Z,9.05
2023-05-03T00:47:51.067Z,9.23
2023-05-03T00:50:17.565Z,9.18
2023-05-03T00:52:44.130Z,8.93
2023-05-03T00:55:11.446Z,9.15
2023-05-03T00:57:37.763Z,8.05
2023-05-03T01:00:04.825Z,7.15
2023-05-03T01:02:31.497Z,7.03
2023-05-03T01:04:57.898Z,7.03
2023-05-03T01:07:48.944Z,7.40
2023-05-03T01:10:26.487Z,7.65
2023-05-03T01:13:07.588Z,6.43
2023-05-03T01:15:52.799Z,6.50
2023-05-03T01:18:23.888Z,7.57
2023-05-03T01:20:51.384Z,6.13
2023-05-03T01:23:32.974Z,6.65
2023-05-03T01:26:00.002Z,7.30
2023-05-03T01:28:26.347Z,6.90
2023-05-03T01:30:54.817Z,6.10
2023-05-03T01:33:52.205Z,6.93
2023-05-03T01:36:32.443Z,6.63
2023-05-03T01:39:06.580Z,6.47
2023-05-03T01:41:35.132Z,6.05
2023-05-03T01:44:03.394Z,6.38
2023-05-03T01:46:29.885Z,6.70
2023-05-03T01:48:56.270Z,6.57
2023-05-03T01:51:22.600Z,7.05
2023-05-03T01:53:49.447Z,6.53
2023-05-03T01:56:15.801Z,7.78
2023-05-03T01:58:42.145Z,6.57
2023-05-03T02:01:09.596Z,7.38
2023-05-03T02:03:35.949Z,6.82
2023-05-03T02:06:02.384Z,7.10
2023-05-03T02:08:28.727Z,7.20
2023-05-03T02:10:55.046Z,7.53
2023-05-03T02:13:21.336Z,7.88
2023-05-03T02:15:48.128Z,7.50
2023-05-03T02:18:16.337Z,7.40
2023-05-03T02:20:46.522Z,6.55
2023-05-03T02:23:13.144Z,7.85
2023-05-03T02:25:40.510Z,6.50
2023-05-03T02:28:06.880Z,7.35
2023-05-03T02:30:34.921Z,7.00
2023-05-03T02:33:02.205Z,7.18
2023-05-03T02:35:29.339Z,7.88
2023-05-03T02:37:55.977Z,8.38
2023-05-03T02:40:22.445Z,7.28
2023-05-03T02:42:48.773Z,7.25
2023-05-03T02:45:22.591Z,7.38
2023-05-03T02:47:48.988Z,6.80
2023-05-03T02:50:15.571Z,7.20
2023-05-03T02:52:41.991Z,7.55
2023-05-03T02:55:08.841Z,8.32
2023-05-03T02:57:36.142Z,7.90
2023-05-03T03:00:05.864Z,6.50
2023-05-03T03:02:33.047Z,7.88
2023-05-03T03:04:59.463Z,7.57
2023-05-03T03:07:27.857Z,7.38
2023-05-03T03:09:56.651Z,8.20
2023-05-03T03:12:23.073Z,6.97
2023-05-03T03:14:49.462Z,7.82
2023-05-03T03:17:15.818Z,7.57
2023-05-03T03:19:42.229Z,7.38
2023-05-03T03:22:08.690Z,7.43
2023-05-03T03:24:36.670Z,7.32
2023-05-03T03:27:03.849Z,7.72
2023-05-03T03:29:32.237Z,7.78
2023-05-03T03:32:00.420Z,7.50
2023-05-03T03:34:26.815Z,9.02
2023-05-03T03:36:53.295Z,11.18
2023-05-03T03:39:20.720Z,11.20
2023-05-03T03:41:47.979Z,10.30
2023-05-03T03:44:14.432Z,7.68
2023-05-03T03:46:40.880Z,8.00
2023-05-03T03:49:08.047Z,7.40
2023-05-03T03:51:35.675Z,8.35
2023-05-03T03:54:02.260Z,7.25
2023-05-03T03:56:33.879Z,8.95
2023-05-03T03:59:00.306Z,11.07
2023-05-03T04:01:26.768Z,13.05
2023-05-03T04:03:53.395Z,14.30
2023-05-03T04:06:19.818Z,14.23
2023-05-03T04:08:46.991Z,13.98
2023-05-03T04:11:14.661Z,19.95
2023-05-03T04:13:49.552Z,16.00
2023-05-03T04:16:16.816Z,12.55
2023-05-03T04:18:43.817Z,11.07
2023-05-03T04:21:10.181Z,9.35
2023-05-03T04:23:36.835Z,8.90
2023-05-03T04:26:05.473Z,8.68
2023-05-03T04:28:33.898Z,7.70
2023-05-03T04:31:00.570Z,7.90
2023-05-03T04:33:29.865Z,8.48
2023-05-03T04:36:01.076Z,9.80
2023-05-03T04:38:28.062Z,9.77
2023-05-03T04:40:57.054Z,8.65
2023-05-03T04:43:24.102Z,24.58
2023-05-03T04:45:53.046Z,26.38
2023-05-03T04:48:22.677Z,18.38
2023-05-03T04:50:49.565Z,10.85
2023-05-03T04:53:18.474Z,9.15
2023-05-03T04:55:50.993Z,9.93
2023-05-03T04:58:17.447Z,8.52
2023-05-03T05:00:45.852Z,8.57
2023-05-03T05:03:18.306Z,9.65
2023-05-03T05:05:44.680Z,8.73
2023-05-03T05:08:11.872Z,10.35
2023-05-03T05:10:43.569Z,11.48
2023-05-03T05:13:14.338Z,13.30
2023-05-03T05:15:41.352Z,12.40
2023-05-03T05:18:10.320Z,9.73
2023-05-03T05:20:38.135Z,9.75
2023-05-03T05:23:05.185Z,13.02
2023-05-03T05:25:31.582Z,10.98
2023-05-03T05:28:00.329Z,12.27
2023-05-03T05:30:28.395Z,11.45
2023-05-03T05:32:54.843Z,11.13
2023-05-03T05:35:21.220Z,9.88
2023-05-03T05:37:47.765Z,9.80
2023-05-03T05:40:15.339Z,9.23
2023-05-03T05:42:48.436Z,9.57
2023-05-03T05:45:15.115Z,8.82
2023-05-03T05:47:42.752Z,9.40
2023-05-03T05:50:17.542Z,9.07
2023-05-03T05:52:50.760Z,9.80
2023-05-03T05:55:17.238Z,8.95
2023-05-03T05:57:45.028Z,9.77
2023-05-03T06:00:15.342Z,10.18
2023-05-03T06:02:47.012Z,10.40
2023-05-03T06:05:17.701Z,10.02
2023-05-03T06:07:44.117Z,9.95
2023-05-03T06:10:10.800Z,9.55
2023-05-03T06:12:39.209Z,10.50
2023-05-03T06:15:11.012Z,10.68
2023-05-03T06:17:37.666Z,10.52
2023-05-03T06:20:04.801Z,10.70
2023-05-03T06:22:31.411Z,10.70
2023-05-03T06:24:58.324Z,11.40
2023-05-03T06:27:25.562Z,10.75
2023-05-03T06:29:52.838Z,10.48
2023-05-03T06:32:19.443Z,11.90
2023-05-03T06:34:46.062Z,11.40
2023-05-03T06:37:12.665Z,10.23
2023-05-03T06:39:38.985Z,10.48
2023-05-03T06:42:05.485Z,11.00
2023-05-03T06:44:36.720Z,11.70
2023-05-03T06:47:03.120Z,10.43
2023-05-03T06:49:29.528Z,11.10
2023-05-03T06:51:55.833Z,10.27
2023-05-03T06:54:22.161Z,11.15
2023-05-03T06:56:48.462Z,10.70
2023-05-03T06:59:14.767Z,10.25
2023-05-03T07:01:41.138Z,10.98
2023-05-03T07:04:07.773Z,10.75
2023-05-03T07:06:44.335Z,11.43
2023-05-03T07:09:14.962Z,10.43
2023-05-03T07:11:49.179Z,12.23
2023-05-03T07:14:16.388Z,9.20
2023-05-03T07:16:42.923Z,10.32
2023-05-03T07:19:09.340Z,10.13
2023-05-03T07:21:35.658Z,9.73
2023-05-03T07:24:01.985Z,9.55
2023-05-03T07:26:28.269Z,10.02
2023-05-03T07:28:54.558Z,9.98
2023-05-03T07:31:22.985Z,9.32
2023-05-03T07:33:49.421Z,8.35
2023-05-03T07:36:15.754Z,9.02
2023-05-03T07:38:42.078Z,9.07
2023-05-03T07:41:08.462Z,8.55
2023-05-03T07:43:34.752Z,8.80
2023-05-03T07:46:01.097Z,8.02
2023-05-03T07:48:27.429Z,8.05
2023-05-03T07:50:53.826Z,8.68
2023-05-03T07:53:20.305Z,8.63
2023-05-03T07:55:46.688Z,7.47
2023-05-03T07:58:13.265Z,7.80
2023-05-03T08:00:39.592Z,8.25
2023-05-03T08:03:06.692Z,7.18
2023-05-03T08:05:36.406Z,7.95
2023-05-03T08:08:03.914Z,6.85
2023-05-03T08:10:30.301Z,7.88
2023-05-03T08:12:56.594Z,7.57
2023-05-03T08:15:22.923Z,8.65
2023-05-03T08:17:49.418Z,7.40
2023-05-03T08:20:16.603Z,8.68
2023-05-03T08:22:45.075Z,8.40
2023-05-03T08:25:12.289Z,7.38
2023-05-03T08:27:39.929Z,11.88
2023-05-03T08:30:07.633Z,8.10
2023-05-03T08:32:34.510Z,7.78
2023-05-03T08:35:01.209Z,7.13
2023-05-03T08:37:27.508Z,7.43
2023-05-03T08:39:53.804Z,8.10
2023-05-03T08:42:20.163Z,6.68
2023-05-03T08:44:48.531Z,8.10
2023-05-03T08:47:16.920Z,7.60
2023-05-03T08:49:44.198Z,6.50
2023-05-03T08:52:11.997Z,6.95
2023-05-03T08:54:38.840Z,7.13
2023-05-03T08:57:11.236Z,7.93
2023-05-03T08:59:51.260Z,7.15
2023-05-03T09:02:17.893Z,7.72
2023-05-03T09:04:45.021Z,6.60
2023-05-03T09:07:12.862Z,12.52
2023-05-03T09:09:39.264Z,7.63
2023-05-03T09:12:05.932Z,7.00
2023-05-03T09:14:42.291Z,6.07
2023-05-03T09:17:21.417Z,6.13
2023-05-03T09:19:55.449Z,9.20
2023-05-03T09:22:32.936Z,7.72
2023-05-03T09:25:01.734Z,7.60
2023-05-03T09:27:28.438Z,34.88
2023-05-03T09:29:55.046Z,11.77
2023-05-03T09:32:22.795Z,7.82
2023-05-03T09:34:49.217Z,8.68
2023-05-03T09:37:15.634Z,8.55
2023-05-03T09:39:45.814Z,7.70
2023-05-03T09:42:13.202Z,6.70
2023-05-03T09:44:51.278Z,7.20
2023-05-03T09:47:18.622Z,7.65
2023-05-03T09:49:45.372Z,6.90
2023-05-03T09:52:12.160Z,7.50
2023-05-03T09:54:39.425Z,7.82
2023-05-03T09:57:07.913Z,7.10
2023-05-03T09:59:36.009Z,8.02
2023-05-03T10:02:04.624Z,7.00
2023-05-03T10:04:44.296Z,7.68
2023-05-03T10:07:17.156Z,6.60
2023-05-03T10:09:45.437Z,7.70
2023-05-03T10:12:13.377Z,7.72
2023-05-03T10:14:41.953Z,7.70
2023-05-03T10:17:14.386Z,7.30
2023-05-03T10:19:57.554Z,7.38
2023-05-03T10:22:23.865Z,7.43
2023-05-03T10:25:02.573Z,7.03
2023-05-03T10:27:48.400Z,5.93
2023-05-03T10:30:37.161Z,7.55
2023-05-03T10:33:09.725Z,6.35
2023-05-03T10:35:39.320Z,7.97
2023-05-03T10:38:20.541Z,7.43
2023-05-03T10:43:28.551Z,7.18
2023-05-03T10:46:05.925Z,6.78
2023-05-03T10:48:33.636Z,7.35
2023-05-03T10:51:33.487Z,8.38
2023-05-03T10:53:59.878Z,7.25
2023-05-03T10:56:26.331Z,6.20
2023-05-03T10:58:56.491Z,7.93
2023-05-03T11:01:24.781Z,7.43
2023-05-03T11:04:05.375Z,7.70
2023-05-03T11:06:36.952Z,6.32
2023-05-03T11:09:06.379Z,7.53
2023-05-03T11:11:33.938Z,7.78
2023-05-03T11:14:00.647Z,6.90
2023-05-03T11:16:27.293Z,7.13
2023-05-03T11:18:54.026Z,7.38
2023-05-03T11:21:21.059Z,6.80
2023-05-03T11:23:47.425Z,6.63
2023-05-03T11:26:13.981Z,7.40
2023-05-03T11:28:44.285Z,6.85
2023-05-03T11:31:12.335Z,6.47
2023-05-03T11:33:39.724Z,8.18
2023-05-03T11:36:09.444Z,6.05
2023-05-03T11:38:38.637Z,6.03
2023-05-03T11:41:19.315Z,5.72
2023-05-03T11:43:52.796Z,7.07
2023-05-03T11:46:27.677Z,7.00
2023-05-03T11:48:54.282Z,5.85
2023-05-03T11:51:25.352Z,5.45
2023-05-03T11:56:20.442Z,5.30
2023-05-03T11:59:04.764Z,4.80
2023-05-03T12:01:31.506Z,4.95
2023-05-03T12:04:03.843Z,5.30
2023-05-03T12:06:35.994Z,5.40
2023-05-03T12:09:13.097Z,6.38
2023-05-03T12:11:42.966Z,5.05
2023-05-03T12:16:52.576Z,5.20
2023-05-03T12:19:28.239Z,5.60
2023-05-03T12:22:17.945Z,4.80
2023-05-03T12:24:45.317Z,4.53
2023-05-03T12:27:13.845Z,4.00
2023-05-03T12:29:41.932Z,4.72
2023-05-03T12:32:10.745Z,4.25
2023-05-03T12:34:41.148Z,4.38
2023-05-03T12:37:11.585Z,3.63
2023-05-03T12:39:39.987Z,4.00
2023-05-03T12:42:08.800Z,3.97
2023-05-03T12:44:40.703Z,3.50
2023-05-03T12:47:09.958Z,4.53
2023-05-03T12:49:38.760Z,4.00
2023-05-03T12:52:35.506Z,3.35
2023-05-03T12:55:02.711Z,4.05
2023-05-03T12:57:30.889Z,3.88
2023-05-03T13:00:02.820Z,3.35
2023-05-03T13:05:11.232Z,3.40
2023-05-03T13:07:42.917Z,4.95
2023-05-03T13:12:41.137Z,3.88
2023-05-03T13:15:08.540Z,4.15
2023-05-03T13:17:35.124Z,3.67
2023-05-03T13:20:01.620Z,4.50
2023-05-03T13:22:28.141Z,4.38
2023-05-03T13:24:54.599Z,3.50
2023-05-03T13:27:20.882Z,3.67
2023-05-03T13:29:49.346Z,3.42
2023-05-03T13:32:16.740Z,3.22
2023-05-03T13:34:43.360Z,3.20
2023-05-03T13:37:11.063Z,3.65
2023-05-03T13:39:37.407Z,3.60
2023-05-03T13:42:03.842Z,3.50
2023-05-03T13:44:30.164Z,3.55
2023-05-03T13:46:56.942Z,3.30
2023-05-03T13:49:23.244Z,3.60
2023-05-03T13:51:49.586Z,3.35
2023-05-03T13:54:15.924Z,3.72
2023-05-03T13:56:42.896Z,2.97
2023-05-03T13:59:11.843Z,3.60
2023-05-03T14:01:38.332Z,3.42
2023-05-03T14:04:05.104Z,3.50
2023-05-03T14:06:33.536Z,2.97
2023-05-03T14:09:01.245Z,2.67
2023-05-03T14:11:28.515Z,2.95
2023-05-03T14:13:57.441Z,3.15
2023-05-03T14:16:39.201Z,3.00
2023-05-03T14:19:09.889Z,3.63
2023-05-03T14:21:36.233Z,3.35
2023-05-03T14:24:02.640Z,3.10
2023-05-03T14:26:29.504Z,3.67
2023-05-03T14:28:56.149Z,3.42
2023-05-03T14:31:22.668Z,3.50
2023-05-03T14:33:49.177Z,3.08
2023-05-03T14:36:15.619Z,3.25
2023-05-03T14:38:41.964Z,3.55
2023-05-03T14:41:09.052Z,3.00
2023-05-03T14:43:35.328Z,3.47
2023-05-03T14:46:01.834Z,2.67
2023-05-03T14:48:28.253Z,3.28
2023-05-03T14:50:54.630Z,3.42
2023-05-03T14:53:21.771Z,3.08
2023-05-03T14:55:48.232Z,3.17
2023-05-03T14:58:14.645Z,2.67
2023-05-03T15:00:41.734Z,3.08
2023-05-03T15:03:11.572Z,2.88
2023-05-03T15:05:46.395Z,2.90
2023-05-03T15:08:14.431Z,2.85
2023-05-03T15:10:41.572Z,3.17
2023-05-03T15:13:10.086Z,3.17
2023-05-03T15:15:40.489Z,2.45
2023-05-03T15:18:08.689Z,3.03
2023-05-03T15:20:35.641Z,3.05
2023-05-03T15:23:04.221Z,2.70
2023-05-03T15:25:31.035Z,2.25
2023-05-03T15:27:57.482Z,2.53
2023-05-03T15:30:23.809Z,2.60
2023-05-03T15:32:51.110Z,2.63
2023-05-03T15:35:17.527Z,2.40
2023-05-03T15:37:43.862Z,2.60
2023-05-03T15:40:12.850Z,2.75
2023-05-03T15:42:39.911Z,2.00
2023-05-03T15:45:07.520Z,2.10
2023-05-03T15:47:33.947Z,1.90
2023-05-03T15:50:01.952Z,1.90
2023-05-03T15:52:28.582Z,2.35
2023-05-03T15:54:56.083Z,2.17
2023-05-03T15:57:22.782Z,2.22
2023-05-03T15:59:49.422Z,2.13
2023-05-03T16:02:16.020Z,2.50
2023-05-03T16:04:42.426Z,2.55
2023-05-03T16:07:08.814Z,1.80
2023-05-03T16:09:35.129Z,2.13
2023-05-03T16:12:02.317Z,2.17
2023-05-03T16:14:28.661Z,2.22
2023-05-03T16:16:55.008Z,1.98
2023-05-03T16:19:21.522Z,2.08
2023-05-03T16:21:47.876Z,2.05
2023-05-03T16:24:14.274Z,1.90
2023-05-03T16:26:41.167Z,2.40
2023-05-03T16:29:07.497Z,2.40
2023-05-03T16:31:33.903Z,2.35
2023-05-03T16:34:02.523Z,1.85
2023-05-03T16:36:28.873Z,2.50
2023-05-03T16:38:55.256Z,2.58
2023-05-03T16:41:21.628Z,2.28
2023-05-03T16:43:47.932Z,2.03
2023-05-03T16:46:14.362Z,2.22
2023-05-03T16:48:40.721Z,1.95
2023-05-03T16:51:07.318Z,2.30
2023-05-03T16:53:33.661Z,2.58
2023-05-03T16:56:00.040Z,2.38
2023-05-03T16:58:26.365Z,3.05
2023-05-03T17:00:53.291Z,2.35
2023-05-03T17:03:19.886Z,2.20
2023-05-03T17:05:46.280Z,2.25
2023-05-03T17:08:13.383Z,2.92
2023-05-03T17:10:39.677Z,2.65
2023-05-03T17:13:06.213Z,1.92
2023-05-03T17:15:32.918Z,1.60
2023-05-03T17:18:00.723Z,2.10
2023-05-03T17:20:30.108Z,1.88
2023-05-03T17:22:56.622Z,2.20
2023-05-03T17:25:23.047Z,2.10
2023-05-03T17:27:51.611Z,2.17
2023-05-03T17:30:21.037Z,2.47
2023-05-03T17:32:48.383Z,2.70
2023-05-03T17:35:14.873Z,1.95
2023-05-03T17:37:41.280Z,2.60
2023-05-03T17:40:08.109Z,2.83
2023-05-03T17:42:35.169Z,42.13
2023-05-03T17:45:02.506Z,30.92
2023-05-03T17:47:29.286Z,29.10
2023-05-03T17:49:56.124Z,10.10
2023-05-03T17:52:22.640Z,10.15
2023-05-03T17:54:51.913Z,3.65
2023-05-03T17:57:20.653Z,3.30
2023-05-03T17:59:48.374Z,2.75
2023-05-03T18:02:14.841Z,2.65
2023-05-03T18:04:41.240Z,2.40
2023-05-03T18:07:07.714Z,2.33
2023-05-03T18:09:34.153Z,2.72
2023-05-03T18:12:03.297Z,2.33
2023-05-03T18:14:29.745Z,2.72
2023-05-03T18:16:56.066Z,2.20
2023-05-03T18:19:23.726Z,2.40
2023-05-03T18:21:50.090Z,2.42
2023-05-03T18:24:16.469Z,2.70
2023-05-03T18:26:42.768Z,2.50
2023-05-03T18:29:09.088Z,9.20
2023-05-03T18:31:35.441Z,14.30
2023-05-03T18:34:01.763Z,6.55
2023-05-03T18:36:28.150Z,4.88
2023-05-03T18:38:54.512Z,4.30
2023-05-03T18:41:20.890Z,5.97
2023-05-03T18:43:47.781Z,3.78
2023-05-03T18:46:18.726Z,6.13
2023-05-03T18:48:45.849Z,8.02
2023-05-03T18:51:12.258Z,9.27
2023-05-03T18:53:38.604Z,4.38
2023-05-03T18:56:05.158Z,4.93
2023-05-03T18:58:32.023Z,13.80
2023-05-03T19:00:59.974Z,6.50
2023-05-03T19:03:30.317Z,6.32
2023-05-03T19:06:01.000Z,4.67
2023-05-03T19:08:28.065Z,7.18
2023-05-03T19:10:54.382Z,11.38
2023-05-03T19:13:20.785Z,6.53
2023-05-03T19:15:47.234Z,7.28
2023-05-03T19:18:15.319Z,7.18
2023-05-03T19:20:43.156Z,3.30
2023-05-03T19:23:09.449Z,13.63
2023-05-03T19:25:35.897Z,7.75
2023-05-03T19:28:04.201Z,5.32
2023-05-03T19:30:30.542Z,3.35
2023-05-03T19:32:56.905Z,3.63
2023-05-03T19:35:23.225Z,3.63
2023-05-03T19:37:49.541Z,3.58
2023-05-03T19:40:15.922Z,4.03
2023-05-03T19:42:42.256Z,5.45
2023-05-03T19:45:09.787Z,4.57
2023-05-03T19:47:36.251Z,4.38
2023-05-03T19:50:02.850Z,4.68
2023-05-03T19:52:29.422Z,2.92
2023-05-03T19:54:57.153Z,14.13
2023-05-03T19:57:23.645Z,8.40
2023-05-03T19:59:50.738Z,55.33
2023-05-03T20:02:18.368Z,21.45
2023-05-03T20:04:44.741Z,11.23
2023-05-03T20:07:11.187Z,7.68
2023-05-03T20:09:37.489Z,3.78
2023-05-03T20:12:04.219Z,8.57
2023-05-03T20:14:32.517Z,8.13
2023-05-03T20:16:58.922Z,5.25
2023-05-03T20:19:25.803Z,5.72
2023-05-03T20:21:52.543Z,5.40
2023-05-03T20:24:20.566Z,4.72
2023-05-03T20:26:46.912Z,12.73
2023-05-03T20:29:13.344Z,7.70
2023-05-03T20:31:39.747Z,7.85
2023-05-03T20:34:06.205Z,5.20
2023-05-03T20:36:32.768Z,10.25
2023-05-03T20:38:59.291Z,19.10
2023-05-03T20:41:25.960Z,5.40
2023-05-03T20:43:54.698Z,5.68
2023-05-03T20:46:21.209Z,11.55
2023-05-03T20:48:47.598Z,14.15
2023-05-03T20:51:14.693Z,38.88
2023-05-03T20:53:41.288Z,12.95
2023-05-03T20:56:08.050Z,17.33
2023-05-03T20:58:34.636Z,10.52
2023-05-03T21:01:04.031Z,11.73
2023-05-03T21:03:30.858Z,9.55
2023-05-03T21:05:57.636Z,31.70
2023-05-03T21:08:24.418Z,15.73
2023-05-03T21:10:50.828Z,8.52
2023-05-03T21:13:17.343Z,7.78
2023-05-03T21:15:43.817Z,9.77
2023-05-03T21:18:11.215Z,6.45
2023-05-03T21:20:38.213Z,10.20
2023-05-03T21:23:05.084Z,9.45
2023-05-03T21:25:31.387Z,7.82
2023-05-03T21:27:57.687Z,6.55
2023-05-03T21:30:24.024Z,4.82
2023-05-03T21:32:50.704Z,3.50
2023-05-03T21:35:17.829Z,5.10
2023-05-03T21:37:45.979Z,3.47
2023-05-03T21:40:13.643Z,3.30
2023-05-03T21:42:39.987Z,4.53
2023-05-03T21:45:06.893Z,7.45
2023-05-03T21:47:33.339Z,4.05
2023-05-03T21:50:00.522Z,5.38
2023-05-03T21:52:27.062Z,3.63
2023-05-03T21:54:54.125Z,2.90
2023-05-03T21:57:20.422Z,3.33
2023-05-03T21:59:47.272Z,3.20
2023-05-03T22:02:13.800Z,3.50
2023-05-03T22:04:40.219Z,3.78
2023-05-03T22:07:06.627Z,3.08
2023-05-03T22:09:32.918Z,3.30
2023-05-03T22:12:03.857Z,2.95
2023-05-03T22:14:35.005Z,2.95
2023-05-03T22:17:01.426Z,3.65
2023-05-03T22:19:28.292Z,3.90
2023-05-03T22:21:54.725Z,2.95
2023-05-03T22:24:21.019Z,3.42
2023-05-03T22:26:47.486Z,3.65
2023-05-03T22:29:13.965Z,3.15
2023-05-03T22:31:40.474Z,3.00
2023-05-03T22:34:06.811Z,3.95
2023-05-03T22:36:33.095Z,11.10
2023-05-03T22:39:05.051Z,4.43
2023-05-03T22:41:33.958Z,3.33
2023-05-03T22:44:00.538Z,3.20
2023-05-03T22:46:26.991Z,2.72
2023-05-03T22:48:53.384Z,2.88
2023-05-03T22:51:19.845Z,3.17
2023-05-03T22:53:46.174Z,2.90
2023-05-03T22:56:13.260Z,3.33
2023-05-03T22:58:39.638Z,2.90
2023-05-03T23:01:13.438Z,3.00
2023-05-03T23:03:39.998Z,3.03
2023-05-03T23:06:07.142Z,3.13
2023-05-03T23:08:33.421Z,3.33
2023-05-03T23:10:59.743Z,3.88
2023-05-03T23:13:27.201Z,3.40
2023-05-03T23:15:56.792Z,2.90
2023-05-03T23:18:23.258Z,3.53
2023-05-03T23:20:49.519Z,3.20
2023-05-03T23:23:16.171Z,3.13
2023-05-03T23:25:42.805Z,3.63
2023-05-03T23:28:09.342Z,4.15
2023-05-03T23:30:36.220Z,3.30
2023-05-03T23:33:03.022Z,3.30
2023-05-03T23:35:29.974Z,3.58
2023-05-03T23:37:56.261Z,3.45
2023-05-03T23:40:22.706Z,3.20
2023-05-03T23:42:49.617Z,3.65
2023-05-03T23:45:15.980Z,3.90
2023-05-03T23:47:42.315Z,3.42
2023-05-03T23:50:09.109Z,3.10
2023-05-03T23:52:35.700Z,3.35
2023-05-03T23:55:02.291Z,4.15
2023-05-03T23:57:28.663Z,3.17
2023-05-03T23:59:55.047Z,3.80
